Flight Track Log - Related Links

Times and Time Zones

All times are in EST time to prevent confusion due to time zone crossing. See the DAL3999 flight status page for this flight to view local times or setup timezone preferences in your user account.

Time Position Orientation Groundspeed Altitude Reporting Facility
EST Latitude Longitude Course Direction KTS MPH feet Rate Location/Type
Fri 02:07:29 PM 42.2297 -83.3339 37° Northeast 145 167 1,500  Level Cleveland Center
Fri 02:08:25 PM 42.2661 -83.2967 37° Northeast 197 227 3,600 2,040 Climbing Cleveland Center
Fri 02:09:09 PM 42.2950 -83.2625 41° Northeast 213 245 4,900 2,060 Climbing Cleveland Center
Fri 02:09:32 PM 42.3211 -83.2336 39° Northeast 260 299 5,900 2,032 Climbing Cleveland Center
Fri 02:10:11 PM 42.3503 -83.2025 38° Northeast 247 284 7,000 2,164 Climbing Cleveland Center
Fri 02:10:33 PM 42.3592 -83.1486 77° East 310 357 8,100 2,323 Climbing Cleveland Center
Fri 02:11:13 PM 42.3361 -83.0992 122° Southeast 298 343 9,400 1,981 Climbing Cleveland Center
Fri 02:12:16 PM 42.2819 -83.0033 127° Southeast 315 362 11,500 1,584 Climbing Cleveland Center
Fri 02:13:18 PM 42.2767 -82.8503 93° East 373 429 12,700 1,113 Climbing Cleveland Center
Fri 02:14:20 PM 42.3114 -82.7036 72° East 405 466 13,800 1,403 Climbing Cleveland Center
Fri 02:15:22 PM 42.3461 -82.5514 73° East 421 484 15,600 1,742 Climbing Cleveland Center
Fri 02:16:24 PM 42.3667 -82.3933 80° East 434 499 17,400 1,597 Climbing Cleveland Center
Fri 02:17:26 PM 42.3597 -82.2325 93° East 429 494 18,900 1,258 Climbing Cleveland Center
Fri 02:18:28 PM 42.3517 -82.0583 94° East 434 499 20,000 823 Climbing Cleveland Center
Fri 02:19:30 PM 42.3444 -81.8825 93° East 456 525 20,600 726 Climbing Cleveland Center
Fri 02:20:32 PM 42.3342 -81.6692 94° East 479 551 21,500 774 Climbing Cleveland Center
Fri 02:21:34 PM 42.3247 -81.4806 94° East 491 565 22,200 677 Climbing Cleveland Center
Fri 02:22:36 PM 42.3161 -81.2894 93° East 501 577 22,900 672 Climbing Cleveland Center
Fri 02:23:39 PM 42.3064 -81.0956 94° East 508 585 23,600 624 Climbing Cleveland Center
Fri 02:24:41 PM 42.2969 -80.8997 94° East 514 592 24,200 532 Climbing Cleveland Center
Fri 02:25:43 PM 42.2856 -80.7017 94° East 522 601 24,700 484 Climbing Cleveland Center
Fri 02:26:45 PM 42.2758 -80.5036 94° East 523 602 25,200 532 Climbing Cleveland Center
Fri 02:27:47 PM 42.2636 -80.3000 95° East 536 617 25,800 581 Climbing Cleveland Center
Fri 02:28:49 PM 42.2492 -80.0644 95° East 536 617 26,400 532 Climbing Cleveland Center
Fri 02:29:51 PM 42.2361 -79.8567 95° East 534 615 26,900 484 Climbing Cleveland Center
Fri 02:30:53 PM 42.2233 -79.6561 95° East 539 620 27,400 484 Climbing Cleveland Center
Fri 02:31:55 PM 42.2103 -79.4539 95° East 542 624 27,900 484 Climbing Cleveland Center
Fri 02:32:57 PM 42.1964 -79.2544 95° East 539 620 28,400 484 Climbing Cleveland Center
Fri 02:33:59 PM 42.1975 -79.0533 90° East 543 625 28,900 290 Climbing Cleveland Center
Fri 02:35:01 PM 42.2256 -78.8344 80° East 533 613 29,000 48 Climbing Cleveland Center
Fri 02:36:03 PM 42.2500 -78.6339 81° East 540 621 29,000  Level Cleveland Center
Fri 02:37:06 PM 42.2747 -78.4336 80° East 544 626 29,000  Level Cleveland Center
Fri 02:38:08 PM 42.2992 -78.2319 81° East 547 629 29,000  Level Cleveland Center
Fri 02:39:10 PM 42.3272 -77.9939 81° East 542 624 29,000  Level Cleveland Center
Fri 02:40:12 PM 42.3503 -77.7972 81° East 537 618 29,000  Level Cleveland Center
Fri 02:41:14 PM 42.3731 -77.6022 81° East 535 616 29,000  Level Cleveland Center
Fri 02:42:16 PM 42.3956 -77.4081 81° East 533 613 29,000  Level Cleveland Center
Fri 02:43:18 PM 42.4217 -77.1764 81° East 527 606 29,000  Level Cleveland Center
Fri 02:44:20 PM 42.4439 -76.9811 81° East 528 608 29,000  Level Cleveland Center
Fri 02:45:22 PM 42.4650 -76.7864 82° East 527 606 29,000  Level Cleveland Center
Fri 02:46:10 PM 42.4822 -76.6308 81° East 527 606 29,000  Level Boston Center
Fri 02:47:14 PM 42.5031 -76.4358 82° East 527 606 29,000  Level Boston Center
Fri 02:48:14 PM 42.5264 -76.2211 82° East 527 606 29,000  Level Boston Center
Fri 02:49:15 PM 42.5467 -76.0272 82° East 525 604 29,000  Level Boston Center
Fri 02:50:18 PM 42.5650 -75.8308 83° East 526 605 29,000  Level Boston Center
Fri 02:51:19 PM 42.5842 -75.6364 82° East 526 605 29,000  Level Boston Center
Fri 02:52:19 PM 42.6031 -75.4419 82° East 525 604 29,000  Level Boston Center
Fri 02:53:22 PM 42.6217 -75.2475 83° East 526 605 29,000  Level Boston Center
Fri 02:54:23 PM 42.6428 -75.0097 83° East 532 612 29,000  Level Boston Center
Fri 02:55:24 PM 42.6614 -74.8158 82° East 524 603 29,000  Level Boston Center
Fri 02:56:25 PM 42.6772 -74.6247 84° East 515 593 29,000  Level Boston Center
Fri 02:57:27 PM 42.6950 -74.4319 83° East 516 594 29,000 -197 Level Boston Center
Fri 02:58:27 PM 42.7114 -74.2353 83° East 521 600 28,600 -677 Descending Boston Center
Fri 02:59:31 PM 42.7289 -74.0336 83° East 517 595 27,600 -968 Descending Boston Center
Fri 03:00:31 PM 42.7444 -73.8414 84° East 512 589 26,600 -992 Descending Boston Center
Fri 03:01:32 PM 42.7536 -73.6517 86° East 502 578 25,600 -960 Descending Boston Center
Fri 03:02:36 PM 42.7597 -73.4633 87° East 498 573 24,600 -1,016 Descending Boston Center
Fri 03:03:36 PM 42.7681 -73.2758 86° East 494 568 23,500 -1,041 Descending Boston Center
Fri 03:04:37 PM 42.7742 -73.0897 87° East 487 560 22,500 -1,258 Descending Boston Center
Fri 03:05:40 PM 42.7864 -72.8786 85° East 478 550 20,900 -2,081 Descending Boston Center
Fri 03:06:41 PM 42.8050 -72.6986 82° East 460 529 18,200 -2,529 Descending Boston Center
Fri 03:07:41 PM 42.8133 -72.5350 86° East 439 505 15,800 -2,182 Descending Boston Center
Fri 03:08:42 PM 42.7978 -72.3844 98° East 407 468 13,800 -2,032 Descending Boston Center
Fri 03:09:45 PM 42.7922 -72.2289 93° East 398 458 11,600 -1,694 Descending Boston Center
Fri 03:10:46 PM 42.8156 -72.1025 76° East 349 402 10,300 -1,230 Descending Boston Center
Fri 03:11:47 PM 42.8369 -71.9864 76° East 321 369 9,100 -1,279 Descending Boston Center
Fri 03:12:48 PM 42.8594 -71.8597 76° East 321 369 7,700 -1,403 Descending Boston Center
Fri 03:13:51 PM 42.8786 -71.7503 77° East 303 349 6,200 -1,268 Descending Boston Center
Fri 03:14:51 PM 42.8661 -71.6458 99° East 303 349 5,100 -942 Descending Boston Center
Fri 03:15:52 PM 42.8289 -71.5464 117° Southeast 279 321 4,300 -960 Descending Boston Center
Fri 03:16:56 PM 42.7889 -71.4633 123° Southeast 261 300 3,100 -581 Descending Boston Center
Fri 03:17:56 PM 42.7517 -71.3944 126° Southeast 228 262 3,100  Level Boston Center
Fri 03:18:56 PM 42.7642 -71.3311 75° East 210 242 3,100 -339 Level Boston Center
Fri 03:20:00 PM 42.8108 -71.3608 335° Northwest 184 212 2,400 -629 Descending Boston Center
Fri 03:21:00 PM 42.8564 -71.3886 336° Northwest 180 207 1,800 -744 Descending Boston Center
Fri 03:22:01 PM 42.8958 -71.4117 337° Northwest 141 162 900 -672 Descending Boston Center
Fri 03:23:05 PM 42.9289 -71.4322 336° Northwest 137 158 400 -469 Descending Boston Center

Login

Don't have an account? Register now (free) for customized features, flight alerts, and more!